Overseas Long Beach — WAAT — position and weather

sailwx.info

Track history (hours):
 
Tides and Currents Weather Stations Pressure Air Temp Water Temp Dewpoint Dewpoint Depression Visibility Wind Speed Wind Dir Waves Ship Positions

Overseas Long Beach

Owner: ASC Leasing II, Inc., Philadelphia, PA. More information available from US FCC via Universal Licensing System and Coast Guard Vessel Documentation Center.

Last reported at 2014-Dec-20 02:06 UTC. Time now 2014-Dec-21 18:42 UTC.
Position N 25°34' W 080°01'.

Length 181 m; draft 7.7 m.

Type: Tanker. MMSI: 367703000.

Date/timePositionNaut miles runAvg speedWind from/ knotsBaromVisibWave heightAir tempDewpointWater temp
2014-Dec-20 02:06N 25°34' W 080°01'712.1
2014-Dec-20 01:33N 25°41' W 080°01'1212.2
2014-Dec-20 00:33N 25°53' W 079°60'1212.1
2014-Dec-19 23:33N 26°05' W 079°59'1212.1
2014-Dec-19 22:33N 26°17' W 079°59'1211.7
2014-Dec-19 21:33N 26°29' W 079°58'1212.0
2014-Dec-19 20:32N 26°41' W 079°58'1212.1
2014-Dec-19 19:33N 26°53' W 079°57'1413.4
2014-Dec-19 18:32N 27°07' W 079°58'  
2014-Dec-15 13:33N 27°01' W 079°42'1716.7
2014-Dec-15 12:33N 26°44' W 079°42'1616.5
2014-Dec-15 11:33N 26°28' W 079°42'1716.9
2014-Dec-15 10:33N 26°11' W 079°44'1616.5
2014-Dec-15 09:33N 25°55' W 079°47'1816.3
2014-Dec-15 08:28N 25°38' W 079°53'  
Track history (hours):
 
Tides and Currents Weather Stations Pressure Air Temp Water Temp Dewpoint Dewpoint Depression Visibility Wind Speed Wind Dir Waves Ship Positions

Overseas Long Beach

Owner: ASC Leasing II, Inc., Philadelphia, PA. More information available from US FCC via Universal Licensing System and Coast Guard Vessel Documentation Center.

Last reported at 2014-Dec-20 02:06 UTC. Time now 2014-Dec-21 18:42 UTC.
Position N 25°34' W 080°01'.

Length 181 m; draft 7.7 m.

Type: Tanker. MMSI: 367703000.

Date/timePositionNaut miles runAvg speedWind from/ knotsBaromVisibWave heightAir tempDewpointWater temp
2014-Dec-20 02:06N 25°34' W 080°01'712.1
2014-Dec-20 01:33N 25°41' W 080°01'1212.2
2014-Dec-20 00:33N 25°53' W 079°60'1212.1
2014-Dec-19 23:33N 26°05' W 079°59'1212.1
2014-Dec-19 22:33N 26°17' W 079°59'1211.7
2014-Dec-19 21:33N 26°29' W 079°58'1212.0
2014-Dec-19 20:32N 26°41' W 079°58'1212.1
2014-Dec-19 19:33N 26°53' W 079°57'1413.4
2014-Dec-19 18:32N 27°07' W 079°58'  
2014-Dec-15 13:33N 27°01' W 079°42'1716.7
2014-Dec-15 12:33N 26°44' W 079°42'1616.5
2014-Dec-15 11:33N 26°28' W 079°42'1716.9
2014-Dec-15 10:33N 26°11' W 079°44'1616.5
2014-Dec-15 09:33N 25°55' W 079°47'1816.3
2014-Dec-15 08:28N 25°38' W 079°53'  

Dump ship's entire track history